createdAt,value
2018-03-20T00:00:49.130Z,999.52
2018-03-20T00:01:49.109Z,999.45
2018-03-20T00:02:49.124Z,999.45
2018-03-20T00:03:49.178Z,999.42
2018-03-20T00:04:49.127Z,999.46
2018-03-20T00:05:49.139Z,999.42
2018-03-20T00:06:49.159Z,999.42
2018-03-20T00:07:49.163Z,999.42
2018-03-20T00:08:49.173Z,999.41
2018-03-20T00:09:49.172Z,999.42
2018-03-20T00:10:49.243Z,999.41
2018-03-20T00:11:49.188Z,999.42
2018-03-20T00:12:49.218Z,999.37
2018-03-20T00:13:49.214Z,999.34
2018-03-20T00:14:49.223Z,999.35
2018-03-20T00:15:49.228Z,999.40
2018-03-20T00:16:49.239Z,999.37
2018-03-20T00:17:49.266Z,999.38
2018-03-20T00:18:49.264Z,999.45
2018-03-20T00:19:49.268Z,999.45
2018-03-20T00:20:49.267Z,999.47
2018-03-20T00:21:49.293Z,999.42
2018-03-20T00:22:49.300Z,999.44
2018-03-20T00:23:49.297Z,999.44
2018-03-20T00:24:49.303Z,999.46
2018-03-20T00:25:49.314Z,999.44
2018-03-20T00:26:49.316Z,999.38
2018-03-20T00:27:49.346Z,999.38
2018-03-20T00:28:49.343Z,999.39
2018-03-20T00:29:49.356Z,999.37
2018-03-20T00:30:49.353Z,999.38
2018-03-20T00:31:49.371Z,999.41
2018-03-20T00:32:49.373Z,999.41
2018-03-20T00:33:49.381Z,999.39
2018-03-20T00:34:49.409Z,999.36
2018-03-20T00:35:49.411Z,999.39
2018-03-20T00:36:49.440Z,999.38
2018-03-20T00:37:49.425Z,999.42
2018-03-20T00:38:49.440Z,999.41
2018-03-20T00:39:49.430Z,999.44
2018-03-20T00:40:49.437Z,999.46
2018-03-20T00:41:49.470Z,999.44
2018-03-20T00:42:49.457Z,999.45
2018-03-20T00:43:49.471Z,999.42
2018-03-20T00:44:49.471Z,999.44
2018-03-20T00:45:49.492Z,999.41
2018-03-20T00:46:49.490Z,999.44
2018-03-20T00:47:49.525Z,999.43
2018-03-20T00:48:49.532Z,999.43
2018-03-20T00:49:49.528Z,999.41
2018-03-20T00:50:49.525Z,999.43
2018-03-20T00:51:49.547Z,999.40
2018-03-20T00:52:49.577Z,999.42
2018-03-20T00:53:49.562Z,999.46
2018-03-20T00:54:49.562Z,999.52
2018-03-20T00:55:49.591Z,999.50
2018-03-20T00:56:49.604Z,999.51
2018-03-20T00:57:49.627Z,999.50
2018-03-20T00:58:49.590Z,999.49
2018-03-20T00:59:49.603Z,999.52
2018-03-20T01:00:49.639Z,999.55
2018-03-20T01:01:49.647Z,999.55
2018-03-20T01:02:49.632Z,999.53
2018-03-20T01:03:49.639Z,999.54
2018-03-20T01:04:49.668Z,999.52
2018-03-20T01:05:49.660Z,999.50
2018-03-20T01:06:49.677Z,999.46
2018-03-20T01:07:49.686Z,999.47
2018-03-20T01:08:49.679Z,999.46
2018-03-20T01:09:49.687Z,999.43
2018-03-20T01:10:49.729Z,999.42
2018-03-20T01:11:49.743Z,999.41
2018-03-20T01:12:49.720Z,999.40
2018-03-20T01:13:49.746Z,999.40
2018-03-20T01:14:49.727Z,999.34
2018-03-20T01:15:49.824Z,999.36
2018-03-20T01:16:49.759Z,999.35
2018-03-20T01:17:49.774Z,999.31
2018-03-20T01:18:49.781Z,999.31
2018-03-20T01:19:49.808Z,999.24
2018-03-20T01:20:49.784Z,999.25
2018-03-20T01:21:49.787Z,999.24
2018-03-20T01:22:49.797Z,999.22
2018-03-20T01:23:49.824Z,999.22
2018-03-20T01:24:49.820Z,999.25
2018-03-20T01:25:49.841Z,999.23
2018-03-20T01:26:49.863Z,999.24
2018-03-20T01:27:49.851Z,999.20
2018-03-20T01:28:49.855Z,999.17
2018-03-20T01:29:49.864Z,999.09
2018-03-20T01:30:49.866Z,999.16
2018-03-20T01:31:49.885Z,999.22
2018-03-20T01:32:49.892Z,999.25
2018-03-20T01:33:49.916Z,999.25
2018-03-20T01:34:49.900Z,999.21
2018-03-20T01:35:49.933Z,999.23
2018-03-20T01:36:49.931Z,999.23
2018-03-20T01:37:49.932Z,999.15
2018-03-20T01:38:49.939Z,999.12
2018-03-20T01:39:49.956Z,999.08
2018-03-20T01:40:49.951Z,999.01
2018-03-20T01:41:49.962Z,998.97
2018-03-20T01:42:50.094Z,998.95
2018-03-20T01:43:49.976Z,998.93
2018-03-20T01:44:50.009Z,998.90
2018-03-20T01:45:50.009Z,998.92
2018-03-20T01:46:50.010Z,998.90
2018-03-20T01:47:50.016Z,998.90
2018-03-20T01:48:50.017Z,998.90
2018-03-20T01:49:50.032Z,998.91
2018-03-20T01:50:50.045Z,998.91
2018-03-20T01:51:50.058Z,998.92
2018-03-20T01:52:50.060Z,998.94
2018-03-20T01:53:50.075Z,998.89
2018-03-20T01:54:50.094Z,998.81
2018-03-20T01:55:50.079Z,998.79
2018-03-20T01:56:50.135Z,998.85
2018-03-20T01:57:50.149Z,998.88
2018-03-20T01:58:50.106Z,998.84
2018-03-20T01:59:50.122Z,998.88
2018-03-20T02:00:50.181Z,998.93
2018-03-20T02:01:50.162Z,998.96
2018-03-20T02:02:50.141Z,998.91
2018-03-20T02:03:50.156Z,998.97
2018-03-20T02:04:50.157Z,998.97
2018-03-20T02:05:50.182Z,998.97
2018-03-20T02:06:50.176Z,998.94
2018-03-20T02:07:50.189Z,998.85
2018-03-20T02:08:50.244Z,998.81
2018-03-20T02:09:50.215Z,998.79
2018-03-20T02:10:50.230Z,998.78
2018-03-20T02:11:50.290Z,998.82
2018-03-20T02:12:50.253Z,998.80
2018-03-20T02:13:50.232Z,998.82
2018-03-20T02:14:50.238Z,998.81
2018-03-20T02:15:50.258Z,998.78
2018-03-20T02:16:50.261Z,998.81
2018-03-20T02:17:50.277Z,998.80
2018-03-20T02:18:50.283Z,998.78
2018-03-20T02:19:50.282Z,998.76
2018-03-20T02:20:50.301Z,998.70
2018-03-20T02:21:50.301Z,998.71
2018-03-20T02:22:50.338Z,998.66
2018-03-20T02:23:50.339Z,998.64
2018-03-20T02:24:50.342Z,998.62
2018-03-20T02:25:50.345Z,998.62
2018-03-20T02:26:50.398Z,998.54
2018-03-20T02:27:50.375Z,998.53
2018-03-20T02:28:50.392Z,998.52
2018-03-20T02:29:50.378Z,998.55
2018-03-20T02:30:50.393Z,998.57
2018-03-20T02:31:50.400Z,998.59
2018-03-20T02:32:50.423Z,998.58
2018-03-20T02:33:50.470Z,998.53
2018-03-20T02:34:50.429Z,998.47
2018-03-20T02:35:50.460Z,998.48
2018-03-20T02:36:50.449Z,998.46
2018-03-20T02:37:50.485Z,998.36
2018-03-20T02:38:50.483Z,998.32
2018-03-20T02:39:50.519Z,998.23
2018-03-20T02:40:50.475Z,998.22
2018-03-20T02:41:50.513Z,998.21
2018-03-20T02:42:50.519Z,998.23
2018-03-20T02:43:50.518Z,998.17
2018-03-20T02:44:50.528Z,998.18
2018-03-20T02:45:50.529Z,998.15
2018-03-20T02:46:50.560Z,998.17
2018-03-20T02:47:50.553Z,998.22
2018-03-20T02:48:50.569Z,998.25
2018-03-20T02:49:50.606Z,998.22
2018-03-20T02:50:50.607Z,998.27
2018-03-20T02:51:50.593Z,998.35
2018-03-20T02:52:50.608Z,998.44
2018-03-20T02:53:50.611Z,998.46
2018-03-20T02:54:50.619Z,998.48
2018-03-20T02:55:50.648Z,998.52
2018-03-20T02:56:50.646Z,998.54
2018-03-20T02:57:50.656Z,998.52
2018-03-20T02:58:50.669Z,998.51
2018-03-20T02:59:50.694Z,998.52
2018-03-20T03:00:50.704Z,998.49
2018-03-20T03:01:50.692Z,998.54
2018-03-20T03:02:50.722Z,998.56
2018-03-20T03:03:50.724Z,998.55
2018-03-20T03:04:50.736Z,998.57
2018-03-20T03:05:50.740Z,998.56
2018-03-20T03:06:50.770Z,998.52
2018-03-20T03:07:50.770Z,998.45
2018-03-20T03:08:50.786Z,998.41
2018-03-20T03:09:50.774Z,998.37
2018-03-20T03:10:50.778Z,998.41
2018-03-20T03:11:50.804Z,998.40
2018-03-20T03:12:50.809Z,998.37
2018-03-20T03:13:50.806Z,998.39
2018-03-20T03:14:50.830Z,998.37
2018-03-20T03:15:50.863Z,998.39
2018-03-20T03:16:50.856Z,998.39
2018-03-20T03:17:50.850Z,998.36
2018-03-20T03:18:50.887Z,998.33
2018-03-20T03:19:50.875Z,998.34
2018-03-20T03:20:50.882Z,998.34
2018-03-20T03:21:50.914Z,998.33
2018-03-20T03:22:50.917Z,998.29
2018-03-20T03:23:50.931Z,998.33
2018-03-20T03:24:50.943Z,998.32
2018-03-20T03:25:50.942Z,998.41
2018-03-20T03:26:50.944Z,998.42
2018-03-20T03:27:50.983Z,998.36
2018-03-20T03:28:50.966Z,998.34
2018-03-20T03:29:51.004Z,998.36
2018-03-20T03:30:51.009Z,998.35
2018-03-20T03:31:51.004Z,998.33
2018-03-20T03:32:51.005Z,998.32
2018-03-20T03:33:51.095Z,998.30
2018-03-20T03:34:51.061Z,998.33
2018-03-20T03:35:51.057Z,998.28
2018-03-20T03:36:51.051Z,998.29
2018-03-20T03:37:51.075Z,998.31
2018-03-20T03:38:51.124Z,998.30
2018-03-20T03:39:51.087Z,998.27
2018-03-20T03:40:51.100Z,998.27
2018-03-20T03:41:51.135Z,998.27
2018-03-20T03:42:51.120Z,998.28
2018-03-20T03:43:51.139Z,998.26
2018-03-20T03:44:51.132Z,998.22
2018-03-20T03:45:51.158Z,998.19
2018-03-20T03:46:51.162Z,998.21
2018-03-20T03:47:51.180Z,998.20
2018-03-20T03:48:51.192Z,998.20
2018-03-20T03:49:51.197Z,998.24
2018-03-20T03:50:51.270Z,998.19
2018-03-20T03:51:51.218Z,998.22
2018-03-20T03:52:51.249Z,998.19
2018-03-20T03:53:51.267Z,998.21
2018-03-20T03:54:51.276Z,998.16
2018-03-20T03:55:51.256Z,998.23
2018-03-20T03:56:51.285Z,998.22
2018-03-20T03:57:51.280Z,998.25
2018-03-20T03:58:51.286Z,998.25
2018-03-20T03:59:51.303Z,998.29
2018-03-20T04:00:51.308Z,998.29
2018-03-20T04:01:51.331Z,998.31
2018-03-20T04:02:51.340Z,998.25
2018-03-20T04:03:51.337Z,998.26
2018-03-20T04:04:51.351Z,998.28
2018-03-20T04:05:51.383Z,998.27
2018-03-20T04:06:51.372Z,998.27
2018-03-20T04:07:51.498Z,998.27
2018-03-20T04:08:51.392Z,998.34
2018-03-20T04:09:51.425Z,998.32
2018-03-20T04:10:51.422Z,998.38
2018-03-20T04:11:51.430Z,998.37
2018-03-20T04:12:51.444Z,998.37
2018-03-20T04:13:51.469Z,998.36
2018-03-20T04:14:51.477Z,998.36
2018-03-20T04:15:51.479Z,998.34
2018-03-20T04:16:51.502Z,998.35
2018-03-20T04:17:51.502Z,998.35
2018-03-20T04:18:51.513Z,998.37
2018-03-20T04:19:51.532Z,998.34
2018-03-20T04:20:51.522Z,998.30
2018-03-20T04:21:51.537Z,998.33
2018-03-20T04:22:51.545Z,998.31
2018-03-20T04:23:51.563Z,998.32
2018-03-20T04:24:51.573Z,998.36
2018-03-20T04:25:51.602Z,998.33
2018-03-20T04:26:51.598Z,998.35
2018-03-20T04:27:51.604Z,998.35
2018-03-20T04:28:51.613Z,998.33
2018-03-20T04:29:51.658Z,998.31
2018-03-20T04:30:51.643Z,998.30
2018-03-20T04:31:51.643Z,998.32
2018-03-20T04:32:51.652Z,998.32
2018-03-20T04:33:51.658Z,998.35
2018-03-20T04:34:51.698Z,998.36
2018-03-20T04:35:51.686Z,998.36
2018-03-20T04:36:51.696Z,998.38
2018-03-20T04:37:51.715Z,998.36
2018-03-20T04:38:51.723Z,998.29
2018-03-20T04:39:51.763Z,998.29
2018-03-20T04:40:51.751Z,998.29
2018-03-20T04:41:51.818Z,998.27
2018-03-20T04:42:51.770Z,998.27
2018-03-20T04:43:51.774Z,998.28
2018-03-20T04:44:51.808Z,998.28
2018-03-20T04:45:51.809Z,998.31
2018-03-20T04:46:51.812Z,998.30
2018-03-20T04:47:51.842Z,998.31
2018-03-20T04:48:51.830Z,998.37
2018-03-20T04:49:51.850Z,998.35
2018-03-20T04:50:51.848Z,998.34
2018-03-20T04:51:51.879Z,998.33
2018-03-20T04:52:51.871Z,998.35
2018-03-20T04:53:51.916Z,998.33
2018-03-20T04:54:51.910Z,998.28
2018-03-20T04:55:51.915Z,998.30
2018-03-20T04:56:51.915Z,998.32
2018-03-20T04:57:51.928Z,998.30
2018-03-20T04:58:51.951Z,998.28
2018-03-20T04:59:51.953Z,998.33
2018-03-20T05:00:51.959Z,998.31
2018-03-20T05:01:51.981Z,998.37
2018-03-20T05:02:51.979Z,998.35
2018-03-20T05:03:51.998Z,998.39
2018-03-20T05:04:52.034Z,998.36
2018-03-20T05:05:52.030Z,998.39
2018-03-20T05:06:52.050Z,998.38
2018-03-20T05:07:52.052Z,998.39
2018-03-20T05:08:52.042Z,998.39
2018-03-20T05:09:52.063Z,998.39
2018-03-20T05:10:52.088Z,998.34
2018-03-20T05:11:52.109Z,998.36
2018-03-20T05:12:52.118Z,998.34
2018-03-20T05:13:52.119Z,998.37
2018-03-20T05:14:52.115Z,998.37
2018-03-20T05:15:52.134Z,998.32
2018-03-20T05:16:52.142Z,998.37
2018-03-20T05:17:52.146Z,998.33
2018-03-20T05:18:52.157Z,998.32
2018-03-20T05:19:52.165Z,998.33
2018-03-20T05:20:52.178Z,998.32
2018-03-20T05:21:52.209Z,998.30
2018-03-20T05:22:52.201Z,998.32
2018-03-20T05:23:52.275Z,998.32
2018-03-20T05:24:52.225Z,998.38
2018-03-20T05:25:52.234Z,998.37
2018-03-20T05:26:52.252Z,998.39
2018-03-20T05:27:52.269Z,998.41
2018-03-20T05:28:52.321Z,998.38
2018-03-20T05:29:52.281Z,998.41
2018-03-20T05:30:52.292Z,998.43
2018-03-20T05:31:52.293Z,998.46
2018-03-20T05:32:52.298Z,998.44
2018-03-20T05:33:52.321Z,998.44
2018-03-20T05:34:52.333Z,998.45
2018-03-20T05:35:52.341Z,998.46
2018-03-20T05:36:52.354Z,998.44
2018-03-20T05:37:52.351Z,998.49
2018-03-20T05:38:52.374Z,998.48
2018-03-20T05:39:52.373Z,998.54
2018-03-20T05:40:52.386Z,998.49
2018-03-20T05:41:52.398Z,998.53
2018-03-20T05:42:52.409Z,998.51
2018-03-20T05:43:52.418Z,998.52
2018-03-20T05:44:52.425Z,998.52
2018-03-20T05:45:52.450Z,998.55
2018-03-20T05:46:52.460Z,998.53
2018-03-20T05:47:52.458Z,998.56
2018-03-20T05:48:52.487Z,998.54
2018-03-20T05:49:52.478Z,998.53
2018-03-20T05:50:52.500Z,998.55
2018-03-20T05:51:52.513Z,998.50
2018-03-20T05:52:52.522Z,998.53
2018-03-20T05:53:52.518Z,998.57
2018-03-20T05:54:52.533Z,998.55
2018-03-20T05:55:52.542Z,998.54
2018-03-20T05:56:52.568Z,998.52
2018-03-20T05:57:52.607Z,998.53
2018-03-20T05:58:52.580Z,998.49
2018-03-20T05:59:52.600Z,998.47
2018-03-20T06:00:52.602Z,998.48
2018-03-20T06:01:52.625Z,998.51
2018-03-20T06:02:52.640Z,998.54
2018-03-20T06:03:52.629Z,998.57
2018-03-20T06:04:52.631Z,998.59
2018-03-20T06:05:52.643Z,998.63
2018-03-20T06:06:52.651Z,998.64
2018-03-20T06:07:52.679Z,998.62
2018-03-20T06:08:52.697Z,998.59
2018-03-20T06:09:52.694Z,998.59
2018-03-20T06:10:52.707Z,998.62
2018-03-20T06:11:52.740Z,998.51
2018-03-20T06:12:52.728Z,998.45
2018-03-20T06:13:52.746Z,998.43
2018-03-20T06:14:52.753Z,998.44
2018-03-20T06:15:52.755Z,998.44
2018-03-20T06:16:52.766Z,998.42
2018-03-20T06:17:52.779Z,998.38
2018-03-20T06:18:52.807Z,998.41
2018-03-20T06:19:52.802Z,998.43
2018-03-20T06:20:52.828Z,998.46
2018-03-20T06:21:52.877Z,998.53
2018-03-20T06:22:52.830Z,998.51
2018-03-20T06:23:52.863Z,998.58
2018-03-20T06:24:52.891Z,998.55
2018-03-20T06:25:52.873Z,998.56
2018-03-20T06:26:52.874Z,998.56
2018-03-20T06:27:52.894Z,998.59
2018-03-20T06:28:52.912Z,998.57
2018-03-20T06:29:52.906Z,998.59
2018-03-20T06:30:52.959Z,998.58
2018-03-20T06:31:52.930Z,998.59
2018-03-20T06:32:52.946Z,998.58
2018-03-20T06:33:52.980Z,998.63
2018-03-20T06:34:52.962Z,998.65
2018-03-20T06:35:52.976Z,998.62
2018-03-20T06:36:52.980Z,998.61
2018-03-20T06:37:52.996Z,998.61
2018-03-20T06:38:53.007Z,998.64
2018-03-20T06:39:53.028Z,998.65
2018-03-20T06:40:53.037Z,998.65
2018-03-20T06:41:53.036Z,998.71
2018-03-20T06:42:53.059Z,998.70
2018-03-20T06:43:53.060Z,998.68
2018-03-20T06:44:53.079Z,998.68
2018-03-20T06:45:53.108Z,998.67
2018-03-20T06:46:53.121Z,998.70
2018-03-20T06:47:53.117Z,998.71
2018-03-20T06:48:53.121Z,998.73
2018-03-20T06:49:53.126Z,998.69
2018-03-20T06:50:53.142Z,998.75
2018-03-20T06:51:53.155Z,998.70
2018-03-20T06:52:53.193Z,998.69
2018-03-20T06:53:53.180Z,998.73
2018-03-20T06:54:53.198Z,998.74
2018-03-20T06:55:53.212Z,998.74
2018-03-20T06:56:53.209Z,998.75
2018-03-20T06:57:53.244Z,998.75
2018-03-20T06:58:53.234Z,998.84
2018-03-20T06:59:53.247Z,998.82
2018-03-20T07:00:53.274Z,998.83
2018-03-20T07:01:53.269Z,998.86
2018-03-20T07:02:53.294Z,998.81
2018-03-20T07:03:53.300Z,998.83
2018-03-20T07:04:53.322Z,998.86
2018-03-20T07:05:53.318Z,998.88
2018-03-20T07:06:53.333Z,998.89
2018-03-20T07:07:53.336Z,998.88
2018-03-20T07:08:53.350Z,998.89
2018-03-20T07:09:53.366Z,998.88
2018-03-20T07:10:53.383Z,998.88
2018-03-20T07:11:53.390Z,998.89
2018-03-20T07:12:53.396Z,998.90
2018-03-20T07:13:53.480Z,998.94
2018-03-20T07:14:53.433Z,998.96
2018-03-20T07:15:53.433Z,998.99
2018-03-20T07:16:53.453Z,998.97
2018-03-20T07:17:53.495Z,998.98
2018-03-20T07:18:53.477Z,998.98
2018-03-20T07:19:53.521Z,998.97
2018-03-20T07:20:53.514Z,998.94
2018-03-20T07:21:53.502Z,998.94
2018-03-20T07:22:53.585Z,998.96
2018-03-20T07:23:53.531Z,998.95
2018-03-20T07:24:53.546Z,999.00
2018-03-20T07:25:53.562Z,998.97
2018-03-20T07:26:53.555Z,998.98
2018-03-20T07:27:53.563Z,999.00
2018-03-20T07:28:53.583Z,999.03
2018-03-20T07:29:53.586Z,999.05
2018-03-20T07:30:53.642Z,999.07
2018-03-20T07:31:53.615Z,999.11
2018-03-20T07:32:53.654Z,999.08
2018-03-20T07:33:53.664Z,999.12
2018-03-20T07:34:53.666Z,999.10
2018-03-20T07:35:53.659Z,999.11
2018-03-20T07:36:53.696Z,999.16
2018-03-20T07:37:53.686Z,999.11
2018-03-20T07:38:53.729Z,999.13
2018-03-20T07:39:53.757Z,999.16
2018-03-20T07:40:53.735Z,999.14
2018-03-20T07:41:53.736Z,999.22
2018-03-20T07:42:53.759Z,999.18
2018-03-20T07:43:53.778Z,999.17
2018-03-20T07:44:53.783Z,999.21
2018-03-20T07:45:53.786Z,999.20
2018-03-20T07:46:53.793Z,999.27
2018-03-20T07:47:53.813Z,999.23
2018-03-20T07:48:53.823Z,999.29
2018-03-20T07:49:53.857Z,999.28
2018-03-20T07:50:53.853Z,999.29
2018-03-20T07:51:53.856Z,999.33
2018-03-20T07:52:53.877Z,999.34
2018-03-20T07:53:53.890Z,999.38
2018-03-20T07:54:53.928Z,999.39
2018-03-20T07:55:53.908Z,999.46
2018-03-20T07:56:53.930Z,999.47
2018-03-20T07:57:53.947Z,999.48
2018-03-20T07:58:53.952Z,999.45
2018-03-20T07:59:54.002Z,999.47
2018-03-20T08:00:53.970Z,999.47
2018-03-20T08:01:53.986Z,999.52
2018-03-20T08:02:54.019Z,999.44
2018-03-20T08:03:54.012Z,999.48
2018-03-20T08:04:54.045Z,999.49
2018-03-20T08:05:54.050Z,999.53
2018-03-20T08:06:54.055Z,999.51
2018-03-20T08:07:54.072Z,999.55
2018-03-20T08:08:54.088Z,999.55
2018-03-20T08:09:54.116Z,999.55
2018-03-20T08:10:54.090Z,999.57
2018-03-20T08:11:54.100Z,999.53
2018-03-20T08:12:54.130Z,999.55
2018-03-20T08:13:54.130Z,999.55
2018-03-20T08:14:54.143Z,999.56
2018-03-20T08:15:54.155Z,999.52
2018-03-20T08:16:54.169Z,999.55
2018-03-20T08:17:54.173Z,999.55
2018-03-20T08:18:54.191Z,999.64
2018-03-20T08:19:54.203Z,999.62
2018-03-20T08:20:54.217Z,999.61
2018-03-20T08:21:54.225Z,999.63
2018-03-20T08:22:54.238Z,999.70
2018-03-20T08:23:54.262Z,999.64
2018-03-20T08:24:54.287Z,999.64
2018-03-20T08:25:54.280Z,999.69
2018-03-20T08:26:54.309Z,999.70
2018-03-20T08:27:54.318Z,999.76
2018-03-20T08:28:54.327Z,999.74
2018-03-20T08:29:54.330Z,999.79
2018-03-20T08:30:54.345Z,999.88
2018-03-20T08:31:54.347Z,1000.08
2018-03-20T08:32:54.362Z,1000.00
2018-03-20T08:33:54.374Z,999.90
2018-03-20T08:34:54.402Z,999.89
2018-03-20T08:35:54.420Z,999.87
2018-03-20T08:36:54.424Z,999.89
2018-03-20T08:37:54.431Z,999.88
2018-03-20T08:38:54.439Z,999.88
2018-03-20T08:39:54.475Z,999.93
2018-03-20T08:40:54.472Z,999.94
2018-03-20T08:41:54.506Z,999.97
2018-03-20T08:42:54.517Z,999.92
2018-03-20T08:43:54.514Z,999.94
2018-03-20T08:44:54.520Z,999.91
2018-03-20T08:45:54.536Z,999.96
2018-03-20T08:46:54.560Z,999.97
2018-03-20T08:47:54.560Z,999.98
2018-03-20T08:48:54.579Z,999.96
2018-03-20T08:49:54.633Z,1000.00
2018-03-20T08:50:54.587Z,1000.03
2018-03-20T08:51:54.610Z,1000.03
2018-03-20T08:52:54.613Z,1000.07
2018-03-20T08:53:54.645Z,1000.11
2018-03-20T08:54:54.666Z,1000.10
2018-03-20T08:55:54.670Z,1000.13
2018-03-20T08:56:54.683Z,1000.13
2018-03-20T08:57:54.678Z,1000.17
2018-03-20T08:58:54.715Z,1000.24
2018-03-20T08:59:54.710Z,1000.23
2018-03-20T09:00:54.726Z,1000.22
2018-03-20T09:01:54.726Z,1000.15
2018-03-20T09:02:54.750Z,1000.26
2018-03-20T09:03:54.755Z,1000.21
2018-03-20T09:04:54.772Z,1000.21
2018-03-20T09:05:54.794Z,1000.28
2018-03-20T09:06:54.795Z,1000.29
2018-03-20T09:07:54.816Z,1000.30
2018-03-20T09:08:54.823Z,1000.23
2018-03-20T09:09:54.827Z,1000.30
2018-03-20T09:10:54.861Z,1000.30
2018-03-20T09:11:54.879Z,1000.22
2018-03-20T09:12:54.870Z,1000.35
2018-03-20T09:13:54.887Z,1000.38
2018-03-20T09:14:54.895Z,1000.34
2018-03-20T09:15:54.905Z,1000.37
2018-03-20T09:16:54.919Z,1000.40
2018-03-20T09:17:54.942Z,1000.39
2018-03-20T09:18:54.948Z,1000.45
2018-03-20T09:19:55.003Z,1000.45
2018-03-20T09:20:54.982Z,1000.45
2018-03-20T09:21:55.004Z,1000.45
2018-03-20T09:22:54.996Z,1000.56
2018-03-20T09:23:55.078Z,1000.65
2018-03-20T09:24:55.019Z,1000.59
2018-03-20T09:25:55.035Z,1000.65
2018-03-20T09:26:55.063Z,1000.79
2018-03-20T09:27:55.056Z,1000.72
2018-03-20T09:28:55.075Z,1000.85
2018-03-20T09:29:55.161Z,1000.85
2018-03-20T09:30:55.113Z,1000.92
2018-03-20T09:31:55.123Z,1000.72
2018-03-20T09:32:55.150Z,1000.83
2018-03-20T09:33:55.154Z,1000.88
2018-03-20T09:34:55.162Z,1000.80
2018-03-20T09:35:55.161Z,1000.89
2018-03-20T09:36:55.209Z,1000.82
2018-03-20T09:37:55.234Z,1001.02
2018-03-20T09:38:55.230Z,1000.98
2018-03-20T09:39:55.221Z,1000.92
2018-03-20T09:40:55.232Z,1000.88
2018-03-20T09:41:55.252Z,1000.94
2018-03-20T09:42:55.280Z,1001.03
2018-03-20T09:43:55.316Z,1001.06
2018-03-20T09:44:55.288Z,1001.15
2018-03-20T09:45:55.320Z,1001.30
2018-03-20T09:46:55.323Z,1001.27
2018-03-20T09:47:55.361Z,1001.29
2018-03-20T09:48:55.348Z,1001.31
2018-03-20T09:49:55.371Z,1001.58
2018-03-20T09:50:55.379Z,1001.40
2018-03-20T09:51:55.400Z,1001.56
2018-03-20T09:52:55.405Z,1001.68
2018-03-20T09:53:55.416Z,1001.46
2018-03-20T09:54:55.440Z,1001.67
2018-03-20T09:55:55.451Z,1001.53
2018-03-20T09:56:55.466Z,1001.78
2018-03-20T09:57:55.489Z,1001.48
2018-03-20T09:58:55.508Z,1001.48
2018-03-20T09:59:55.520Z,1001.69
2018-03-20T10:00:55.533Z,1001.66
2018-03-20T10:01:55.558Z,1001.63
2018-03-20T10:02:55.555Z,1001.74
2018-03-20T10:03:55.581Z,1001.53
2018-03-20T10:04:55.604Z,1001.86
2018-03-20T10:05:55.594Z,1001.86
2018-03-20T10:06:55.627Z,1001.85
2018-03-20T10:07:55.653Z,1001.66
2018-03-20T10:08:55.643Z,1001.57
2018-03-20T10:09:55.675Z,1001.73
2018-03-20T10:10:55.686Z,1001.73
2018-03-20T10:11:55.694Z,1001.85
2018-03-20T10:12:55.729Z,1001.76
2018-03-20T10:13:55.717Z,1001.73
2018-03-20T10:14:55.732Z,1001.88
2018-03-20T10:15:55.747Z,1001.86
2018-03-20T10:16:55.800Z,1001.94
2018-03-20T10:17:55.783Z,1001.72
2018-03-20T10:18:55.810Z,1001.82
2018-03-20T10:19:55.812Z,1001.73
2018-03-20T10:20:55.818Z,1001.76
2018-03-20T10:21:55.838Z,1001.73
2018-03-20T10:22:55.857Z,1001.72
2018-03-20T10:23:55.875Z,1001.73
2018-03-20T10:24:55.900Z,1001.80
2018-03-20T10:25:55.897Z,1001.82
2018-03-20T10:26:55.910Z,1001.64
2018-03-20T10:27:55.942Z,1001.71
2018-03-20T10:28:55.968Z,1001.72
2018-03-20T10:29:55.946Z,1001.72
2018-03-20T10:30:55.968Z,1001.73
2018-03-20T10:31:55.977Z,1001.90
2018-03-20T10:32:56.016Z,1001.99
2018-03-20T10:33:56.013Z,1001.71
2018-03-20T10:34:56.026Z,1001.76
2018-03-20T10:35:56.073Z,1001.89
2018-03-20T10:36:56.066Z,1001.93
2018-03-20T10:37:56.075Z,1002.05
2018-03-20T10:38:56.092Z,1001.98
2018-03-20T10:39:56.100Z,1001.98
2018-03-20T10:40:56.141Z,1002.29
2018-03-20T10:41:56.157Z,1002.18
2018-03-20T10:42:56.173Z,1002.22
2018-03-20T10:43:56.158Z,1002.05
2018-03-20T10:44:56.174Z,1002.17
2018-03-20T10:45:56.195Z,1002.02
2018-03-20T10:46:56.204Z,1002.05
2018-03-20T10:47:56.226Z,1002.12
2018-03-20T10:48:56.236Z,1002.31
2018-03-20T10:49:56.251Z,1002.25
2018-03-20T10:50:56.292Z,1002.29
2018-03-20T10:51:56.283Z,1002.09
2018-03-20T10:52:56.317Z,1002.10
2018-03-20T10:53:56.353Z,1002.05
2018-03-20T10:54:56.345Z,1002.33
2018-03-20T10:55:56.334Z,1002.14
2018-03-20T10:56:56.400Z,1002.44
2018-03-20T10:57:56.363Z,1002.27
2018-03-20T10:58:56.398Z,1002.46
2018-03-20T10:59:56.406Z,1002.49
2018-03-20T11:00:56.448Z,1002.58
2018-03-20T11:01:56.442Z,1002.36
2018-03-20T11:02:56.459Z,1002.32
2018-03-20T11:03:56.475Z,1002.32
2018-03-20T11:04:56.479Z,1002.30
2018-03-20T11:05:56.530Z,1002.28
2018-03-20T11:06:56.504Z,1002.33
2018-03-20T11:07:56.529Z,1002.45
2018-03-20T11:08:56.552Z,1002.43
2018-03-20T11:09:56.560Z,1002.52
2018-03-20T11:10:56.567Z,1002.46
2018-03-20T11:11:56.579Z,1002.46
2018-03-20T11:12:56.595Z,1002.50
2018-03-20T11:13:56.630Z,1002.43
2018-03-20T11:14:56.658Z,1002.52
2018-03-20T11:15:56.645Z,1002.46
2018-03-20T11:16:56.673Z,1002.51
2018-03-20T11:17:56.678Z,1002.78
2018-03-20T11:18:56.689Z,1002.67
2018-03-20T11:19:56.706Z,1002.52
2018-03-20T11:20:56.725Z,1002.49
2018-03-20T11:21:56.772Z,1002.76
2018-03-20T11:22:56.779Z,1002.56
2018-03-20T11:23:56.773Z,1002.74
2018-03-20T11:24:56.780Z,1002.96
2018-03-20T11:25:56.795Z,1002.64
2018-03-20T11:26:56.839Z,1002.58
2018-03-20T11:27:56.834Z,1002.78
2018-03-20T11:28:56.868Z,1002.65
2018-03-20T11:29:56.925Z,1002.79
2018-03-20T11:30:56.879Z,1002.74
2018-03-20T11:31:56.890Z,1002.78
2018-03-20T11:32:56.906Z,1002.82
2018-03-20T11:33:56.917Z,1002.67
2018-03-20T11:34:56.944Z,1002.59
2018-03-20T11:35:56.957Z,1002.66
2018-03-20T11:36:56.967Z,1002.85
2018-03-20T11:37:57.001Z,1002.83
2018-03-20T11:38:57.035Z,1002.75
2018-03-20T11:39:57.013Z,1002.81
2018-03-20T11:40:57.023Z,1002.69
2018-03-20T11:41:57.039Z,1002.87
2018-03-20T11:42:57.053Z,1002.87
2018-03-20T11:43:57.137Z,1002.93
2018-03-20T11:44:57.109Z,1002.67
2018-03-20T11:45:57.168Z,1003.02
2018-03-20T11:46:57.148Z,1002.93
2018-03-20T11:47:57.157Z,1002.92
2018-03-20T11:48:57.152Z,1002.91
2018-03-20T11:49:57.181Z,1002.98
2018-03-20T11:50:57.188Z,1003.09
2018-03-20T11:51:57.205Z,1003.19
2018-03-20T11:52:57.227Z,1003.11
2018-03-20T11:53:57.247Z,1003.13
2018-03-20T11:54:57.260Z,1003.30
2018-03-20T11:55:57.298Z,1003.16
2018-03-20T11:56:57.296Z,1003.37
2018-03-20T11:57:57.293Z,1003.21
2018-03-20T11:58:57.327Z,1003.15
2018-03-20T11:59:57.321Z,1003.32
2018-03-20T12:00:57.338Z,1003.28
2018-03-20T12:01:57.352Z,1003.17
2018-03-20T12:02:57.369Z,1003.33
2018-03-20T12:03:57.386Z,1003.26
2018-03-20T12:04:57.405Z,1003.53
2018-03-20T12:05:57.419Z,1003.32
2018-03-20T12:06:57.428Z,1003.27
2018-03-20T12:07:57.472Z,1003.29
2018-03-20T12:08:57.505Z,1003.39
2018-03-20T12:09:57.482Z,1003.43
2018-03-20T12:10:57.501Z,1003.36
2018-03-20T12:11:57.515Z,1003.42
2018-03-20T12:12:57.559Z,1003.46
2018-03-20T12:13:57.562Z,1003.61
2018-03-20T12:14:57.559Z,1003.44
2018-03-20T12:15:57.584Z,1003.30
2018-03-20T12:16:57.592Z,1003.50
2018-03-20T12:17:57.614Z,1003.49
2018-03-20T12:18:57.618Z,1003.45
2018-03-20T12:19:57.651Z,1003.50
2018-03-20T12:20:57.646Z,1003.42
2018-03-20T12:21:57.676Z,1003.44